createdAt,value
2018-12-17T00:00:24.902Z,122.60
2018-12-17T00:03:09.119Z,142.00
2018-12-17T00:08:55.102Z,120.33
2018-12-17T00:11:30.531Z,118.77
2018-12-17T00:14:05.056Z,117.07
2018-12-17T00:16:46.765Z,114.27
2018-12-17T00:19:19.369Z,105.63
2018-12-17T00:22:00.640Z,100.57
2018-12-17T00:24:36.501Z,91.17
2018-12-17T00:27:06.917Z,99.73
2018-12-17T00:29:41.326Z,88.40
2018-12-17T00:32:23.046Z,80.83
2018-12-17T00:35:04.051Z,76.40
2018-12-17T00:37:45.956Z,74.40
2018-12-17T00:40:18.420Z,74.50
2018-12-17T00:42:53.102Z,75.50
2018-12-17T00:45:34.558Z,79.60
2018-12-17T00:48:16.394Z,84.97
2018-12-17T00:50:48.708Z,75.00
2018-12-17T00:53:30.064Z,75.33
2018-12-17T00:56:11.990Z,81.67
2018-12-17T00:58:53.687Z,80.83
2018-12-17T01:06:28.312Z,85.23
2018-12-17T01:09:01.043Z,85.07
2018-12-17T01:11:44.915Z,89.90
2018-12-17T01:22:03.669Z,91.23
2018-12-17T01:32:24.224Z,122.27
2018-12-17T01:35:05.860Z,122.33
2018-12-17T01:37:42.210Z,130.57
2018-12-17T01:40:12.328Z,131.50
2018-12-17T01:42:46.954Z,138.60
2018-12-17T01:45:28.781Z,139.13
2018-12-17T01:48:10.587Z,136.53
2018-12-17T01:50:42.257Z,149.10
2018-12-17T01:53:17.062Z,147.93
2018-12-17T01:55:58.715Z,135.27
2018-12-17T01:58:39.663Z,143.33
2018-12-17T02:01:21.602Z,135.03
2018-12-17T02:04:02.562Z,143.37
2018-12-17T02:06:43.867Z,142.33
2018-12-17T02:09:16.212Z,140.57
2018-12-17T02:11:57.735Z,149.57
2018-12-17T02:14:48.566Z,152.70
2018-12-17T02:17:30.535Z,145.90
2018-12-17T02:20:02.314Z,281.37
2018-12-17T02:22:43.710Z,226.57
2018-12-17T02:25:25.551Z,263.73
2018-12-17T02:27:57.986Z,300.27
2018-12-17T02:30:30.094Z,259.07
2018-12-17T02:33:11.508Z,219.60
2018-12-17T02:35:53.478Z,295.23
2018-12-17T02:38:25.618Z,200.80
2018-12-17T02:40:55.738Z,278.60
2018-12-17T02:43:30.748Z,261.33
2018-12-17T02:46:12.563Z,244.77
2018-12-17T02:48:47.777Z,304.80
2018-12-17T02:51:29.521Z,206.17
2018-12-17T02:54:11.401Z,199.93
2018-12-17T02:56:45.795Z,170.37
2018-12-17T02:59:20.712Z,162.63
2018-12-17T03:01:51.020Z,176.20
2018-12-17T03:04:32.381Z,177.90
2018-12-17T03:07:14.273Z,197.97
2018-12-17T03:09:45.847Z,221.27
2018-12-17T03:12:27.348Z,239.63
2018-12-17T03:15:08.988Z,203.13
2018-12-17T03:17:50.899Z,171.83
2018-12-17T03:20:23.171Z,199.77
2018-12-17T03:22:52.971Z,146.03
2018-12-17T03:25:30.150Z,160.20
2018-12-17T03:28:11.828Z,177.00
2018-12-17T03:30:44.385Z,136.80
2018-12-17T03:33:19.107Z,177.03
2018-12-17T03:36:00.710Z,147.40
2018-12-17T03:38:42.627Z,187.23
2018-12-17T03:41:17.790Z,170.67
2018-12-17T03:43:52.605Z,188.23
2018-12-17T03:46:22.698Z,219.87
2018-12-17T03:48:54.661Z,197.97
2018-12-17T03:51:30.313Z,193.13
2018-12-17T03:54:12.114Z,212.97
2018-12-17T03:56:54.040Z,221.07
2018-12-17T03:59:30.716Z,183.60
2018-12-17T04:02:03.676Z,176.37
2018-12-17T04:04:45.147Z,191.00
2018-12-17T04:07:27.080Z,197.60
2018-12-17T04:09:59.488Z,181.23
2018-12-17T04:12:36.168Z,207.13
2018-12-17T04:15:16.162Z,237.87
2018-12-17T04:18:02.849Z,225.33
2018-12-17T04:20:37.810Z,229.93
2018-12-17T04:23:13.135Z,189.23
2018-12-17T04:25:57.006Z,233.23
2018-12-17T04:28:38.767Z,277.83
2018-12-17T04:31:11.304Z,256.60
2018-12-17T04:33:52.947Z,227.80
2018-12-17T04:36:28.308Z,224.07
2018-12-17T04:39:02.866Z,243.47
2018-12-17T04:41:40.298Z,191.17
2018-12-17T04:44:28.054Z,243.57
2018-12-17T04:47:02.907Z,247.97
2018-12-17T04:49:44.222Z,340.47
2018-12-17T04:52:25.270Z,274.10
2018-12-17T04:55:07.178Z,323.43
2018-12-17T04:57:48.522Z,267.43
2018-12-17T05:00:18.295Z,275.83
2018-12-17T05:02:54.087Z,289.60
2018-12-17T05:05:26.506Z,327.93
2018-12-17T05:08:00.996Z,315.17
2018-12-17T05:10:35.919Z,247.57
2018-12-17T05:13:10.948Z,250.33
2018-12-17T05:15:49.619Z,321.33
2018-12-17T05:18:32.102Z,287.87
2018-12-17T05:21:13.423Z,290.17
2018-12-17T05:23:55.330Z,241.67
2018-12-17T05:26:36.335Z,318.97
2018-12-17T05:29:08.738Z,314.60
2018-12-17T05:31:47.378Z,296.13
2018-12-17T05:34:28.872Z,253.33
2018-12-17T05:37:10.699Z,261.77
2018-12-17T05:39:53.554Z,219.13
2018-12-17T05:42:28.490Z,273.00
2018-12-17T05:45:10.319Z,235.73
2018-12-17T05:47:52.203Z,185.03
2018-12-17T05:50:24.621Z,200.57
2018-12-17T05:53:03.311Z,193.83
2018-12-17T05:55:39.378Z,196.53
2018-12-17T05:58:15.569Z,151.77
2018-12-17T06:00:54.611Z,177.77
2018-12-17T06:03:38.585Z,165.23
2018-12-17T06:09:17.754Z,148.27
2018-12-17T06:15:00.252Z,148.23
2018-12-17T06:17:47.366Z,160.87
2018-12-17T06:20:16.896Z,146.03
2018-12-17T06:22:58.174Z,156.93
2018-12-17T06:25:39.899Z,152.07
2018-12-17T06:28:10.504Z,142.70
2018-12-17T06:30:53.027Z,156.03
2018-12-17T06:33:34.088Z,146.33
2018-12-17T06:36:15.951Z,141.17
2018-12-17T06:42:00.363Z,142.90
2018-12-17T06:44:46.919Z,150.90
2018-12-17T06:47:17.359Z,139.47
2018-12-17T06:49:58.726Z,157.10
2018-12-17T06:52:33.299Z,146.30
2018-12-17T06:55:05.980Z,155.10
2018-12-17T06:57:47.991Z,161.37
2018-12-17T07:00:19.883Z,146.67
2018-12-17T07:03:01.338Z,155.87
2018-12-17T07:05:43.129Z,157.47
2018-12-17T07:08:18.384Z,160.47
2018-12-17T07:10:54.107Z,161.43
2018-12-17T07:13:39.267Z,159.33
2018-12-17T07:19:19.786Z,132.53
2018-12-17T07:22:01.222Z,123.10
2018-12-17T07:24:36.494Z,117.03
2018-12-17T07:27:18.002Z,112.57
2018-12-17T07:29:49.914Z,125.97
2018-12-17T07:32:20.354Z,116.30
2018-12-17T07:34:55.410Z,108.07
2018-12-17T07:37:33.658Z,107.53
2018-12-17T07:40:07.126Z,107.20
2018-12-17T07:42:48.459Z,103.57
2018-12-17T07:45:30.354Z,105.57
2018-12-17T07:48:05.848Z,102.53
2018-12-17T07:50:37.754Z,94.33
2018-12-17T07:53:20.249Z,90.83
2018-12-17T07:55:55.290Z,88.23
2018-12-17T07:58:30.135Z,98.90
2018-12-17T08:01:02.389Z,95.17
2018-12-17T08:03:44.863Z,83.47
2018-12-17T08:06:33.226Z,77.00
2018-12-17T08:09:06.632Z,81.33
2018-12-17T08:11:40.548Z,75.07
2018-12-17T08:17:28.834Z,66.50
2018-12-17T08:20:04.556Z,59.90
2018-12-17T08:22:46.567Z,63.43
2018-12-17T08:25:21.734Z,64.57
2018-12-17T08:28:03.011Z,72.73
2018-12-17T08:30:40.039Z,78.17
2018-12-17T08:33:23.661Z,84.10
2018-12-17T08:36:00.846Z,68.57
2018-12-17T08:38:35.895Z,73.80
2018-12-17T08:41:10.802Z,79.20
2018-12-17T08:43:52.710Z,69.43
2018-12-17T08:46:35.320Z,60.27
2018-12-17T08:49:05.971Z,65.17
2018-12-17T08:51:40.811Z,57.47
2018-12-17T08:54:15.194Z,63.67
2018-12-17T08:56:52.159Z,64.23
2018-12-17T08:59:31.159Z,62.57
2018-12-17T09:02:06.435Z,60.30
2018-12-17T09:04:45.296Z,59.23
2018-12-17T09:07:26.870Z,62.93
2018-12-17T09:10:00.292Z,58.37
2018-12-17T09:12:41.913Z,52.67
2018-12-17T09:15:20.387Z,53.53
2018-12-17T09:18:02.017Z,52.83
2018-12-17T09:20:34.763Z,58.10
2018-12-17T09:23:13.355Z,47.00
2018-12-17T09:25:55.179Z,56.27
2018-12-17T09:28:32.203Z,58.60
2018-12-17T09:31:04.451Z,57.30
2018-12-17T09:33:39.980Z,56.13
2018-12-17T09:36:14.658Z,61.10
2018-12-17T09:38:53.475Z,59.20
2018-12-17T09:41:39.052Z,60.50
2018-12-17T09:44:14.382Z,57.00
2018-12-17T09:46:56.072Z,65.17
2018-12-17T09:49:28.687Z,56.90
2018-12-17T09:52:10.102Z,56.47
2018-12-17T09:54:47.204Z,54.50
2018-12-17T09:57:25.845Z,62.27
2018-12-17T09:59:58.432Z,63.30
2018-12-17T10:02:35.824Z,61.27
2018-12-17T10:05:07.874Z,65.20
2018-12-17T10:07:46.679Z,57.47
2018-12-17T10:10:18.832Z,61.33
2018-12-17T10:16:10.114Z,54.10
2018-12-17T10:18:51.814Z,57.47
2018-12-17T10:21:44.099Z,52.00
2018-12-17T10:24:22.527Z,49.80
2018-12-17T10:26:54.887Z,45.37
2018-12-17T10:35:35.868Z,44.93
2018-12-17T10:38:12.848Z,42.43
2018-12-17T10:40:47.916Z,44.00
2018-12-17T10:43:39.586Z,44.43
2018-12-17T10:46:21.124Z,42.87
2018-12-17T10:49:02.737Z,42.70
2018-12-17T10:51:41.259Z,47.13
2018-12-17T10:54:22.627Z,41.67
2018-12-17T10:56:59.816Z,45.03
2018-12-17T11:02:47.587Z,44.37
2018-12-17T11:05:29.299Z,43.83
2018-12-17T11:08:06.597Z,46.50
2018-12-17T11:10:43.474Z,46.37
2018-12-17T11:13:13.993Z,47.17
2018-12-17T11:15:48.911Z,47.83
2018-12-17T11:21:36.443Z,46.43
2018-12-17T11:24:18.086Z,49.87
2018-12-17T11:27:01.208Z,42.73
2018-12-17T11:29:34.762Z,47.33
2018-12-17T11:32:17.391Z,46.20
2018-12-17T11:34:55.999Z,47.10
2018-12-17T11:37:27.385Z,47.23
2018-12-17T11:43:27.876Z,46.97
2018-12-17T11:46:09.552Z,49.73
2018-12-17T11:48:53.097Z,52.00
2018-12-17T11:51:38.727Z,51.03
2018-12-17T11:54:14.422Z,46.97
2018-12-17T11:57:00.488Z,49.90
2018-12-17T11:59:32.795Z,52.63
2018-12-17T12:02:14.130Z,47.10
2018-12-17T12:04:51.175Z,49.10
2018-12-17T12:07:30.311Z,52.43
2018-12-17T12:10:07.308Z,46.90
2018-12-17T12:12:55.202Z,41.70
2018-12-17T12:15:30.023Z,41.97
2018-12-17T12:18:15.495Z,44.03
2018-12-17T12:20:48.112Z,39.90
2018-12-17T12:23:31.462Z,41.90
2018-12-17T12:26:13.521Z,38.03
2018-12-17T12:28:52.736Z,40.23
2018-12-17T12:31:27.979Z,36.77
2018-12-17T12:34:08.351Z,35.48
2018-12-17T12:39:36.792Z,30.67
2018-12-17T12:42:22.740Z,30.47
2018-12-17T12:45:06.208Z,27.10
2018-12-17T12:47:43.970Z,27.53
2018-12-17T12:50:33.471Z,26.17
2018-12-17T12:56:25.062Z,27.47
2018-12-17T12:59:06.278Z,25.53
2018-12-17T13:01:43.366Z,26.37
2018-12-17T13:04:25.094Z,24.33
2018-12-17T13:07:02.280Z,22.13
2018-12-17T13:09:44.048Z,23.80
2018-12-17T13:12:22.499Z,20.60
2018-12-17T13:15:04.203Z,18.80
2018-12-17T13:17:52.355Z,12.20
2018-12-17T13:20:28.865Z,13.45
2018-12-17T13:23:11.794Z,14.38
2018-12-17T13:25:54.894Z,12.78
2018-12-17T13:28:39.451Z,15.65
2018-12-17T13:31:14.702Z,16.05
2018-12-17T13:33:53.644Z,13.23
2018-12-17T13:36:35.264Z,14.47
2018-12-17T13:39:07.708Z,16.27
2018-12-17T13:41:52.144Z,16.37
2018-12-17T13:44:27.230Z,13.93
2018-12-17T13:47:06.090Z,16.52
2018-12-17T13:49:38.333Z,15.97
2018-12-17T13:58:30.720Z,11.93
2018-12-17T14:01:03.968Z,11.00
2018-12-17T14:03:49.424Z,13.80
2018-12-17T14:06:26.589Z,11.12
2018-12-17T14:09:04.748Z,10.60
2018-12-17T14:11:46.867Z,11.10
2018-12-17T14:14:38.431Z,12.50
2018-12-17T14:20:24.238Z,12.20
2018-12-17T14:23:07.440Z,14.53
2018-12-17T14:25:46.637Z,12.93
2018-12-17T14:34:32.065Z,16.13
2018-12-17T14:59:04.208Z,17.02
2018-12-17T15:01:40.961Z,21.13
2018-12-17T15:04:20.087Z,18.47
2018-12-17T15:06:50.220Z,20.17
2018-12-17T15:09:22.342Z,21.60
2018-12-17T15:12:06.286Z,22.43
2018-12-17T15:14:46.451Z,20.60
2018-12-17T15:17:28.872Z,21.17
2018-12-17T15:20:00.721Z,24.27
2018-12-17T15:22:52.650Z,23.00
2018-12-17T15:25:25.670Z,21.47
2018-12-17T15:28:11.487Z,21.60
2018-12-17T15:30:43.598Z,22.70
2018-12-17T15:33:13.999Z,26.27
2018-12-17T15:35:57.605Z,24.07
2018-12-17T15:38:39.865Z,26.43
2018-12-17T15:41:17.952Z,25.80
2018-12-17T15:44:06.343Z,27.17
2018-12-17T15:46:44.789Z,24.40
2018-12-17T15:49:37.493Z,28.83
2018-12-17T15:52:21.062Z,25.93
2018-12-17T15:55:06.823Z,30.87
2018-12-17T15:57:42.209Z,30.33
2018-12-17T16:00:33.396Z,30.53
2018-12-17T16:03:21.777Z,36.00
2018-12-17T16:05:59.299Z,30.73
2018-12-17T16:08:39.156Z,33.40
2018-12-17T16:11:21.378Z,34.70
2018-12-17T16:13:56.372Z,34.67
2018-12-17T16:16:32.223Z,34.93
2018-12-17T16:19:05.175Z,35.17
2018-12-17T16:24:54.207Z,35.43
2018-12-17T16:27:29.459Z,39.13
2018-12-17T16:30:01.762Z,37.53
2018-12-17T16:32:40.460Z,43.10
2018-12-17T16:35:23.195Z,41.07
2018-12-17T16:38:07.601Z,41.63
2018-12-17T16:49:36.152Z,42.37
2018-12-17T17:01:55.634Z,51.03
2018-12-17T17:04:38.610Z,49.77
2018-12-17T17:07:21.806Z,47.70
2018-12-17T17:09:59.209Z,53.93
2018-12-17T17:15:50.967Z,53.57
2018-12-17T17:18:34.278Z,58.20
2018-12-17T17:21:11.500Z,50.80
2018-12-17T17:24:00.845Z,50.43
2018-12-17T17:29:41.178Z,52.10
2018-12-17T17:35:40.726Z,52.57
2018-12-17T17:57:33.165Z,41.20
2018-12-17T18:12:55.299Z,44.27
2018-12-17T18:15:45.298Z,42.13
2018-12-17T18:21:19.927Z,38.07
2018-12-17T18:24:03.686Z,37.60
2018-12-17T18:26:42.106Z,35.73
2018-12-17T18:29:18.620Z,41.53
2018-12-17T18:35:10.211Z,31.90
2018-12-17T18:38:00.218Z,29.43
2018-12-17T18:40:39.260Z,31.47
2018-12-17T18:43:27.295Z,31.40
2018-12-17T18:46:09.771Z,30.83
2018-12-17T18:48:51.595Z,29.23
2018-12-17T18:51:29.751Z,37.27
2018-12-17T18:54:08.973Z,36.23
2018-12-17T18:56:52.479Z,37.67
2018-12-17T18:59:29.179Z,31.60
2018-12-17T19:02:07.905Z,29.43
2018-12-17T19:04:47.079Z,26.10
2018-12-17T19:07:42.947Z,32.20
2018-12-17T19:10:19.779Z,29.33
2018-12-17T19:12:59.151Z,28.47
2018-12-17T19:15:40.771Z,23.20
2018-12-17T19:18:19.403Z,28.53
2018-12-17T19:21:08.099Z,24.67
2018-12-17T19:23:47.410Z,22.50
2018-12-17T19:26:39.408Z,23.63
2018-12-17T19:29:22.043Z,20.20
2018-12-17T19:32:03.095Z,13.37
2018-12-17T19:34:40.299Z,15.47
2018-12-17T19:37:23.735Z,19.53
2018-12-17T19:40:09.911Z,21.27
2018-12-17T19:42:58.916Z,20.13
2018-12-17T19:45:47.622Z,23.97
2018-12-17T19:48:28.674Z,21.37
2018-12-17T19:51:00.286Z,21.93
2018-12-17T19:53:49.243Z,22.53
2018-12-17T19:56:28.038Z,22.23
2018-12-17T19:59:15.354Z,22.43
2018-12-17T20:01:48.142Z,25.03
2018-12-17T20:04:33.562Z,25.77
2018-12-17T20:07:21.226Z,19.93
2018-12-17T20:09:52.978Z,23.20
2018-12-17T20:15:28.909Z,29.63
2018-12-17T20:18:07.597Z,27.03
2018-12-17T20:20:38.675Z,24.13
2018-12-17T20:23:29.109Z,28.03
2018-12-17T20:26:10.377Z,32.27
2018-12-17T20:28:56.861Z,26.87
2018-12-17T20:31:39.273Z,25.90
2018-12-17T20:34:20.583Z,28.97
2018-12-17T20:39:49.203Z,27.97
2018-12-17T20:42:26.250Z,30.43
2018-12-17T20:45:15.421Z,29.67
2018-12-17T20:48:10.694Z,35.00
2018-12-17T20:50:51.094Z,39.83
2018-12-17T20:56:49.896Z,36.37
2018-12-17T20:59:25.018Z,39.13
2018-12-17T21:02:15.936Z,40.07
2018-12-17T21:04:59.775Z,40.20
2018-12-17T21:10:39.776Z,41.83
2018-12-17T21:13:32.874Z,41.73
2018-12-17T21:16:22.235Z,42.53
2018-12-17T21:19:05.127Z,36.47
2018-12-17T21:21:42.407Z,36.07
2018-12-17T21:24:17.870Z,40.87
2018-12-17T21:27:04.762Z,45.20
2018-12-17T21:29:40.784Z,38.93
2018-12-17T21:32:22.095Z,38.97
2018-12-17T21:35:04.820Z,41.97
2018-12-17T21:46:52.902Z,42.53
2018-12-17T21:49:27.825Z,42.03
2018-12-17T21:55:24.066Z,53.40
2018-12-17T21:58:05.898Z,43.77
2018-12-17T22:00:48.588Z,44.20
2018-12-17T22:03:28.725Z,44.13
2018-12-17T22:06:06.771Z,43.70
2018-12-17T22:09:00.334Z,46.67
2018-12-17T22:11:40.457Z,45.50
2018-12-17T22:14:24.319Z,44.53
2018-12-17T22:20:04.923Z,43.03
2018-12-17T22:22:44.942Z,47.73
2018-12-17T22:25:29.244Z,47.97
2018-12-17T22:28:13.781Z,42.07
2018-12-17T22:30:56.407Z,46.50
2018-12-17T22:33:32.650Z,38.87
2018-12-17T22:39:09.848Z,37.97
2018-12-17T22:44:44.660Z,34.30
2018-12-17T22:47:26.487Z,43.70
2018-12-17T22:50:03.947Z,37.67
2018-12-17T22:55:50.176Z,37.90
2018-12-17T23:01:37.054Z,37.23
2018-12-17T23:04:16.153Z,41.33
2018-12-17T23:07:07.692Z,38.63
2018-12-17T23:15:57.720Z,46.70
2018-12-17T23:21:53.295Z,43.73
2018-12-17T23:24:40.043Z,49.10
2018-12-17T23:27:28.322Z,44.43
2018-12-17T23:30:05.722Z,46.23
2018-12-17T23:33:02.444Z,50.47
2018-12-17T23:50:44.439Z,45.23
2018-12-17T23:53:23.201Z,48.37
2018-12-17T23:56:05.481Z,46.93
2018-12-17T23:58:43.110Z,48.93
